Main page
METAR-TAF:

METAR-TAF

Airports :

King Fahd International Airport

Dammam, Saudi Arabia

latitude: 26-28N, longitude: 049-47E, elevation: 22 m

Current weather observation

The report was made 57 minutes ago, at 23:00 UTC
Wind 3 kt from the West
Temperature 16°C
Humidity 51%
Pressure 1014 hPa
Visibility 10 km or more
no clouds below 1500 m and no cumulonimbus

METAR: OEDF 302300Z 27003KT CAVOK 16/06 Q1014 NOSIG

Time: 02:57 (23:57 UTC)

Forecast

The report was made 1 hour and 57 minutes ago, at 22:00 UTC
Forecast valid from 31 at 00 UTC to 01 at 06 UTC
Wind 4 kt from variable directions
Visibility 10 km or more
no clouds below 1500 m and no cumulonimbus
Temporary
from 31 at 00 UTC to 31 at 03 UTC
Visibility: 6000 m
Becoming
from 31 at 09 UTC to 31 at 11 UTC
Wind 13 kt from the Northeast

TAF: OEDF 302200Z 3100/0106 VRB04KT CAVOK TEMPO 3100/3103 6000 NSC BECMG 3109/3111 04013KT

Weather observations and forecasts of more than 4000 airports (METAR and TAF reports).

The available stations are represented by yellow and red dots on the map.

Hover mouse over dot to see the name of the station.

Then click to see weather observations and forecasts.

To change the map : click on the green buttons with a black cross to zoom in, on the green button with a dash to zoom out, or on the green arrows for adjacent maps.


METAR-TAF: